MSC Krittika — H3RV — position and weather

sailwx.info

Track history (hours):
 
Tides and Currents Weather Stations Pressure Air Temp Water Temp Dewpoint Dewpoint Depression Visibility Wind Speed Wind Dir Waves Ship Positions

MSC Krittika

Last reported at 2014-Nov-19 17:33 UTC. Time now 2014-Nov-21 10:10 UTC.
Position S 38°36' E 144°31'.

Length 202 m; draft 9.9 m.

Type: Ship (hazmat cat A). MMSI: 354725000.

Date/timePositionNaut miles runAvg speedWind from/ knotsBaromVisibWave heightAir tempDewpointWater temp
2014-Nov-19 17:33S 38°36' E 144°31'1 0.7
2014-Nov-19 16:33S 38°36' E 144°30'0 0.4
2014-Nov-19 15:33S 38°36' E 144°30'1 0.7
2014-Nov-19 14:33S 38°36' E 144°31'8 2.0
2014-Nov-19 10:23S 38°28' E 144°35'55 2.6
2014-Nov-18 13:27S 38°56' E 143°34'3515.5
2014-Nov-18 11:11S 38°52' E 142°50'1016.2
2014-Nov-18 10:32S 38°49' E 142°37'1515.6
2014-Nov-18 09:33S 38°43' E 142°19'1616.0
2014-Nov-18 08:31S 38°38' E 141°59'1616.2
2014-Nov-18 07:33S 38°33' E 141°40'1615.9
2014-Nov-18 06:33S 38°28' E 141°20'3316.5
2014-Nov-18 04:33S 38°15' E 140°42'1616.3
2014-Nov-18 03:33S 38°07' E 140°24'3716.2
2014-Nov-18 01:16S 37°39' E 139°54'  
Track history (hours):
 
Tides and Currents Weather Stations Pressure Air Temp Water Temp Dewpoint Dewpoint Depression Visibility Wind Speed Wind Dir Waves Ship Positions

MSC Krittika

Last reported at 2014-Nov-19 17:33 UTC. Time now 2014-Nov-21 10:10 UTC.
Position S 38°36' E 144°31'.

Length 202 m; draft 9.9 m.

Type: Ship (hazmat cat A). MMSI: 354725000.

Date/timePositionNaut miles runAvg speedWind from/ knotsBaromVisibWave heightAir tempDewpointWater temp
2014-Nov-19 17:33S 38°36' E 144°31'1 0.7
2014-Nov-19 16:33S 38°36' E 144°30'0 0.4
2014-Nov-19 15:33S 38°36' E 144°30'1 0.7
2014-Nov-19 14:33S 38°36' E 144°31'8 2.0
2014-Nov-19 10:23S 38°28' E 144°35'55 2.6
2014-Nov-18 13:27S 38°56' E 143°34'3515.5
2014-Nov-18 11:11S 38°52' E 142°50'1016.2
2014-Nov-18 10:32S 38°49' E 142°37'1515.6
2014-Nov-18 09:33S 38°43' E 142°19'1616.0
2014-Nov-18 08:31S 38°38' E 141°59'1616.2
2014-Nov-18 07:33S 38°33' E 141°40'1615.9
2014-Nov-18 06:33S 38°28' E 141°20'3316.5
2014-Nov-18 04:33S 38°15' E 140°42'1616.3
2014-Nov-18 03:33S 38°07' E 140°24'3716.2
2014-Nov-18 01:16S 37°39' E 139°54'  

Dump ship's entire track history